Time;durP1;ratioP1;P1;durP2;ratioP2;P2;SDS_P1;SDS_P2;PMS_P1;PMS_P2;Temp;Humidity;BMP_temperature;BMP_pressure;BME280_temperature;BME280_humidity;BME280_pressure;Samples;Min_cycle;Max_cycle;Signal;HPM_P1;HPM_P2
2022/03/12 00:00:43;;;;;;;;;6.00;3.00;;;;;10.82;68.62;100930.28;5061268;28;45316;-66
2022/03/12 00:03:10;;;;;;;;;3.50;2.25;;;;;10.79;68.72;100933.94;5039672;28;45478;-61
2022/03/12 00:05:47;;;;;;;;;7.75;3.25;;;;;10.78;69.20;100931.41;5058386;28;45237;-62
2022/03/12 00:08:12;;;;;;;;;2.25;2.25;;;;;10.78;68.90;100950.69;5060998;28;45723;-63
2022/03/12 00:10:41;;;;;;;;;3.00;2.00;;;;;10.78;69.16;100953.31;5060964;28;45416;-60
2022/03/12 00:13:06;;;;;;;;;2.00;2.00;;;;;10.75;69.20;100956.16;5061035;28;45311;-63
2022/03/12 00:15:38;;;;;;;;;3.50;3.50;;;;;10.73;68.91;100950.09;5061175;28;45379;-62
2022/03/12 00:18:05;;;;;;;;;3.25;3.00;;;;;10.71;69.26;100954.59;5058201;28;45433;-63
2022/03/12 00:20:32;;;;;;;;;2.25;2.25;;;;;10.70;68.83;100962.59;5041149;28;45416;-63
2022/03/12 00:22:58;;;;;;;;;3.75;3.00;;;;;10.69;69.13;100963.53;5040531;28;45459;-63
2022/03/12 00:25:27;;;;;;;;;3.00;3.00;;;;;10.68;68.98;100957.44;5041079;28;45349;-63
2022/03/12 00:27:54;;;;;;;;;3.00;3.00;;;;;10.65;68.81;100968.13;5040931;28;45439;-64
2022/03/12 00:30:22;;;;;;;;;3.00;3.00;;;;;10.62;69.16;100969.16;5040336;28;45183;-63
2022/03/12 00:32:49;;;;;;;;;3.25;3.00;;;;;10.63;69.43;100975.25;5047629;28;45596;-62
2022/03/12 00:35:16;;;;;;;;;3.00;3.00;;;;;10.65;69.15;100977.81;5042652;28;45604;-63
2022/03/12 00:37:42;;;;;;;;;3.00;2.75;;;;;10.70;69.51;100979.25;5040433;28;46379;-63
2022/03/12 00:40:08;;;;;;;;;2.00;2.00;;;;;10.76;69.44;100978.94;5044062;28;45392;-61
2022/03/12 00:42:33;;;;;;;;;4.00;3.25;;;;;10.82;69.20;100986.50;5048396;28;45418;-62
2022/03/12 00:44:59;;;;;;;;;4.25;2.00;;;;;10.90;69.13;100988.66;5056919;28;45224;-60
2022/03/12 00:47:26;;;;;;;;;4.25;1.75;;;;;10.95;68.54;100993.69;5046615;28;45420;-62
2022/03/12 00:49:52;;;;;;;;;3.75;2.75;;;;;11.00;68.91;100994.28;5052118;28;45415;-63
2022/03/12 00:52:18;;;;;;;;;3.00;3.00;;;;;11.02;68.69;101000.31;5055704;28;45301;-63
2022/03/12 00:54:47;;;;;;;;;3.50;3.50;;;;;11.04;68.63;101004.56;5046513;28;45634;-60
2022/03/12 00:57:13;;;;;;;;;3.25;2.00;;;;;11.09;68.75;101009.56;5024908;28;45347;-60
2022/03/12 00:59:42;;;;;;;;;2.50;2.00;;;;;11.08;68.54;101008.72;5023011;28;45385;-60
2022/03/12 01:02:15;;;;;;;;;3.00;2.00;;;;;11.08;68.40;101011.38;5022439;28;45478;-60
2022/03/12 01:04:42;;;;;;;;;3.75;3.75;;;;;11.09;68.56;101013.06;5040580;28;45384;-63
2022/03/12 01:07:10;;;;;;;;;2.25;2.25;;;;;11.10;68.57;101021.81;5040437;28;46377;-59
2022/03/12 01:09:36;;;;;;;;;4.50;3.00;;;;;11.13;68.21;101029.53;5040221;28;45494;-57
2022/03/12 01:12:02;;;;;;;;;1.75;1.75;;;;;11.11;68.37;101031.41;5040523;28;45368;-63
2022/03/12 01:14:29;;;;;;;;;4.00;4.00;;;;;11.07;67.84;101037.81;5040131;28;45399;-59
2022/03/12 01:16:58;;;;;;;;;3.75;2.75;;;;;11.05;68.13;101042.31;5041997;28;45442;-60
2022/03/12 01:19:25;;;;;;;;;4.50;3.50;;;;;11.05;68.49;101035.25;5043964;28;45312;-62
2022/03/12 01:21:51;;;;;;;;;3.00;3.00;;;;;11.02;67.83;101034.59;5043877;28;45261;-62
2022/03/12 01:24:16;;;;;;;;;4.25;3.25;;;;;11.04;67.77;101037.97;5043784;28;45320;-59
2022/03/12 01:26:42;;;;;;;;;5.00;2.75;;;;;11.03;68.08;101033.63;5043867;28;45757;-60
2022/03/12 01:29:07;;;;;;;;;5.25;3.50;;;;;11.06;68.25;101046.63;5043775;28;45364;-59
2022/03/12 01:31:35;;;;;;;;;4.25;3.00;;;;;11.08;68.25;101039.50;5043762;28;45365;-60
2022/03/12 01:34:01;;;;;;;;;3.75;3.00;;;;;11.03;67.53;101037.13;5043829;28;45261;-59
2022/03/12 01:36:27;;;;;;;;;3.50;2.25;;;;;10.97;68.00;101036.63;5060817;28;45459;-60
2022/03/12 01:38:54;;;;;;;;;2.00;2.00;;;;;10.91;67.79;101029.94;5063846;28;45279;-57
2022/03/12 01:41:30;;;;;;;;;3.50;3.25;;;;;10.82;67.85;101025.13;5027709;28;45522;-62
2022/03/12 01:43:57;;;;;;;;;2.50;2.50;;;;;10.77;68.21;101024.56;5047030;28;45305;-60
2022/03/12 01:46:40;;;;;;;;;4.50;3.75;;;;;10.73;68.03;101029.13;5062980;28;45521;-59
2022/03/12 01:49:18;;;;;;;;;4.00;2.75;;;;;10.69;68.34;101021.50;5059319;28;45910;-61
2022/03/12 01:51:45;;;;;;;;;4.50;2.00;;;;;10.66;68.70;101025.13;5049322;28;45614;-61
2022/03/12 01:54:12;;;;;;;;;4.75;2.50;;;;;10.65;68.36;101031.34;5051928;28;45466;-61
2022/03/12 01:56:38;;;;;;;;;2.25;2.25;;;;;10.63;68.31;101033.22;5050867;28;45516;-61
2022/03/12 01:59:05;;;;;;;;;4.50;2.75;;;;;10.62;68.57;101029.75;5051235;28;45619;-62
2022/03/12 02:01:32;;;;;;;;;1.00;0.00;;;;;10.62;68.71;101039.44;5055800;28;45443;-61
2022/03/12 02:04:03;;;;;;;;;6.00;2.00;;;;;10.65;68.89;101033.13;5043176;28;45395;-61
2022/03/12 02:06:28;;;;;;;;;4.25;3.50;;;;;10.67;68.97;101053.22;5042712;28;46115;-61
2022/03/12 02:08:57;;;;;;;;;3.75;3.25;;;;;10.69;68.89;101059.25;5042996;28;45509;-61
2022/03/12 02:11:27;;;;;;;;;3.25;3.00;;;;;10.76;68.67;101059.75;5042854;28;45428;-61
2022/03/12 02:14:08;;;;;;;;;3.00;3.00;;;;;10.79;68.75;101056.94;5043324;28;45391;-61
2022/03/12 02:16:34;;;;;;;;;3.00;3.00;;;;;10.82;68.90;101056.75;5042231;28;45567;-61
2022/03/12 02:19:00;;;;;;;;;8.50;4.50;;;;;10.88;68.96;101066.97;5042844;28;45257;-61
2022/03/12 02:21:38;;;;;;;;;9.50;3.50;;;;;10.90;68.98;101068.59;5042417;28;45312;-61
2022/03/12 02:24:09;;;;;;;;;4.75;3.00;;;;;10.90;68.51;101065.09;5042934;28;45257;-61
2022/03/12 02:26:34;;;;;;;;;3.00;3.00;;;;;10.88;68.63;101057.28;5024623;28;46824;-61
2022/03/12 02:29:00;;;;;;;;;11.50;4.50;;;;;10.86;68.05;101067.06;5041141;28;45448;-61
2022/03/12 02:31:26;;;;;;;;;4.25;4.00;;;;;10.87;68.08;101067.91;5042567;28;45817;-61
2022/03/12 02:33:53;;;;;;;;;4.00;3.75;;;;;10.86;68.41;101061.78;5042402;28;45407;-61
2022/03/12 02:36:21;;;;;;;;;3.50;3.50;;;;;10.88;68.04;101061.69;5060677;28;45477;-61
2022/03/12 02:38:49;;;;;;;;;3.75;3.75;;;;;10.91;68.16;101066.81;5060983;28;45654;-61
2022/03/12 02:41:19;;;;;;;;;5.00;3.75;;;;;10.90;68.19;101067.72;5041136;28;45636;-61
2022/03/12 02:43:45;;;;;;;;;3.00;3.00;;;;;10.87;68.17;101052.09;5042677;28;45423;-61
2022/03/12 02:46:14;;;;;;;;;2.75;2.75;;;;;10.83;68.12;101056.72;5061195;28;45431;-62
2022/03/12 02:48:39;;;;;;;;;3.50;1.50;;;;;10.79;68.06;101064.84;5062210;28;45433;-61
2022/03/12 02:51:06;;;;;;;;;3.25;1.75;;;;;10.75;68.20;101053.63;5061966;28;45368;-61
2022/03/12 02:53:32;;;;;;;;;4.00;3.00;;;;;10.74;67.89;101064.25;5061932;28;45512;-61
2022/03/12 02:55:58;;;;;;;;;5.00;3.75;;;;;10.73;68.31;101065.19;5052695;28;45437;-61
2022/03/12 02:58:24;;;;;;;;;3.25;2.75;;;;;10.72;68.34;101058.22;5041560;28;45439;-61
2022/03/12 03:00:49;;;;;;;;;4.25;2.50;;;;;10.74;68.40;101058.97;5041891;28;45391;-61
2022/03/12 03:03:15;;;;;;;;;3.50;3.00;;;;;10.75;68.08;101066.81;5042288;28;45608;-61
2022/03/12 03:05:46;;;;;;;;;7.25;2.75;;;;;10.73;68.29;101062.53;5042059;28;45647;-61
2022/03/12 03:08:18;;;;;;;;;3.00;3.00;;;;;10.72;68.14;101068.75;5042095;28;45438;-61
2022/03/12 03:10:47;;;;;;;;;4.00;3.00;;;;;10.71;67.91;101073.16;5042050;28;45371;-61
2022/03/12 03:13:19;;;;;;;;;3.00;2.75;;;;;10.70;68.04;101068.84;5040647;28;45511;-61
2022/03/12 03:15:49;;;;;;;;;3.25;1.75;;;;;10.71;68.19;101086.34;5041425;28;45426;-62
2022/03/12 03:18:17;;;;;;;;;1.00;1.00;;;;;10.74;68.04;101074.78;5042247;28;45283;-62
2022/03/12 03:20:45;;;;;;;;;3.50;2.00;;;;;10.73;68.33;101068.66;5042217;28;45327;-60
2022/03/12 03:23:11;;;;;;;;;3.25;3.00;;;;;10.73;68.31;101068.66;5042679;28;45842;-60
2022/03/12 03:25:37;;;;;;;;;3.75;3.00;;;;;10.72;68.23;101071.38;5042363;28;46065;-60
2022/03/12 03:28:05;;;;;;;;;4.25;3.00;;;;;10.70;68.42;101070.63;5048895;28;45453;-60
2022/03/12 03:30:37;;;;;;;;;6.75;5.00;;;;;10.69;68.20;101074.19;5062382;28;45466;-60
2022/03/12 03:33:07;;;;;;;;;3.00;2.00;;;;;10.66;68.21;101075.19;5062117;28;45282;-61
2022/03/12 03:35:33;;;;;;;;;5.25;2.00;;;;;10.65;68.17;101081.41;5041873;28;46171;-61
2022/03/12 03:37:59;;;;;;;;;3.00;2.00;;;;;10.65;68.38;101083.19;5042163;28;45255;-61
2022/03/12 03:40:26;;;;;;;;;5.00;3.00;;;;;10.61;68.36;101078.09;5054520;28;45258;-60
2022/03/12 03:42:51;;;;;;;;;7.50;3.75;;;;;10.60;67.95;101076.41;5042354;28;45313;-61
2022/03/12 03:45:21;;;;;;;;;2.00;2.00;;;;;10.60;68.34;101081.66;5056046;28;45493;-61
2022/03/12 03:47:47;;;;;;;;;1.75;1.75;;;;;10.58;68.11;101070.34;5061753;28;45375;-60
2022/03/12 03:50:13;;;;;;;;;4.50;3.75;;;;;10.59;68.14;101087.88;5061934;28;45359;-61
2022/03/12 03:52:39;;;;;;;;;3.00;2.75;;;;;10.58;68.12;101082.66;5062116;28;45163;-61
2022/03/12 03:55:06;;;;;;;;;5.50;3.75;;;;;10.58;68.18;101085.28;5059978;28;45423;-61
2022/03/12 03:57:32;;;;;;;;;5.50;2.00;;;;;10.58;68.25;101088.78;5041980;28;45421;-60
2022/03/12 03:59:57;;;;;;;;;3.00;2.00;;;;;10.56;68.13;101087.16;5041841;28;45284;-61
2022/03/12 04:02:23;;;;;;;;;4.00;2.25;;;;;10.52;68.38;101089.13;5041904;28;45394;-60
2022/03/12 04:04:49;;;;;;;;;6.50;4.00;;;;;10.50;68.34;101088.34;5041481;28;45460;-61
2022/03/12 04:07:15;;;;;;;;;5.50;3.00;;;;;10.49;68.72;101088.44;5041229;28;45419;-60
2022/03/12 04:09:41;;;;;;;;;5.25;4.75;;;;;10.46;68.60;101086.81;5041455;28;45321;-61
2022/03/12 04:12:07;;;;;;;;;6.50;3.50;;;;;10.45;68.71;101087.75;5041866;28;45434;-61
2022/03/12 04:14:32;;;;;;;;;2.75;2.00;;;;;10.44;68.29;101088.69;5041242;28;46756;-61
2022/03/12 04:16:58;;;;;;;;;2.50;2.50;;;;;10.43;68.73;101094.88;5041313;28;45249;-61
2022/03/12 04:19:29;;;;;;;;;7.75;3.00;;;;;10.43;68.83;101086.16;5041309;28;45389;-60
2022/03/12 04:21:56;;;;;;;;;7.00;3.00;;;;;10.44;68.20;101091.31;5041281;28;45308;-61
2022/03/12 04:24:24;;;;;;;;;4.75;3.00;;;;;10.45;68.50;101100.91;5041103;28;46351;-61
2022/03/12 04:26:50;;;;;;;;;0.00;0.00;;;;;10.45;68.30;101098.28;5041269;28;45304;-60
2022/03/12 04:29:18;;;;;;;;;3.75;2.00;;;;;10.42;68.33;101093.16;5041146;28;45280;-61
2022/03/12 04:31:48;;;;;;;;;2.00;2.00;;;;;10.39;68.19;101097.75;5041231;28;45484;-61
2022/03/12 04:34:14;;;;;;;;;7.50;2.75;;;;;10.36;68.54;101106.69;5043522;28;45353;-60
2022/03/12 04:36:43;;;;;;;;;4.50;4.00;;;;;10.32;68.53;101099.84;5061195;28;45243;-60
2022/03/12 04:39:10;;;;;;;;;3.00;3.00;;;;;10.26;68.34;101113.34;5058048;28;45342;-61
2022/03/12 04:41:36;;;;;;;;;5.50;3.50;;;;;10.22;68.84;101103.88;5041242;28;45542;-60
2022/03/12 04:44:04;;;;;;;;;3.00;3.00;;;;;10.21;68.44;101110.06;5044964;28;45215;-60
2022/03/12 04:46:29;;;;;;;;;3.00;3.00;;;;;10.18;69.03;101112.84;5060899;28;45293;-60
2022/03/12 04:48:55;;;;;;;;;3.00;3.00;;;;;10.19;68.91;101111.91;5061016;28;45229;-60
2022/03/12 04:51:20;;;;;;;;;3.25;2.00;;;;;10.16;68.78;101106.81;5060227;28;45721;-61
2022/03/12 04:53:46;;;;;;;;;5.25;3.00;;;;;10.14;68.72;101112.16;5060917;28;45441;-61
2022/03/12 04:56:11;;;;;;;;;3.00;3.00;;;;;10.14;69.25;101111.31;5050733;28;45332;-61
2022/03/12 04:58:37;;;;;;;;;4.00;2.25;;;;;10.11;68.97;101112.34;5040965;28;45321;-60
2022/03/12 05:01:03;;;;;;;;;6.50;3.25;;;;;10.12;69.28;101114.03;5040769;28;45277;-61
2022/03/12 05:03:28;;;;;;;;;3.00;3.00;;;;;10.15;69.09;101118.28;5040502;28;46068;-61
2022/03/12 05:05:54;;;;;;;;;4.25;2.50;;;;;10.17;69.16;101119.03;5040446;28;45469;-61
2022/03/12 05:08:23;;;;;;;;;2.75;2.75;;;;;10.17;68.82;101127.78;5040947;28;45447;-61
2022/03/12 05:10:51;;;;;;;;;3.50;3.00;;;;;10.21;69.08;101136.41;5040810;28;45309;-61
2022/03/12 05:13:25;;;;;;;;;4.25;3.00;;;;;10.26;69.05;101142.28;5040488;28;46110;-60
2022/03/12 05:15:53;;;;;;;;;3.75;2.00;;;;;10.27;68.65;101142.25;5040607;28;45238;-60
2022/03/12 05:18:20;;;;;;;;;3.00;3.00;;;;;10.28;68.99;101141.31;5040683;28;45467;-60
2022/03/12 05:20:46;;;;;;;;;5.25;3.00;;;;;10.28;68.50;101141.31;5040580;28;45448;-60
2022/03/12 05:23:12;;;;;;;;;4.00;4.00;;;;;10.25;68.35;101143.22;5022610;28;45348;-61
2022/03/12 05:25:42;;;;;;;;;4.00;4.00;;;;;10.27;68.77;101152.78;5040117;28;45493;-60
2022/03/12 05:28:10;;;;;;;;;5.75;2.00;;;;;10.29;68.62;101140.38;5040599;28;45343;-60
2022/03/12 05:30:36;;;;;;;;;6.50;2.00;;;;;10.32;68.85;101145.47;5040487;28;45499;-61
2022/03/12 05:33:04;;;;;;;;;4.50;3.25;;;;;10.34;68.65;101153.28;5040217;28;46009;-61
2022/03/12 05:35:29;;;;;;;;;6.00;3.50;;;;;10.36;68.12;101154.06;5053602;28;45443;-61
2022/03/12 05:37:55;;;;;;;;;3.00;3.00;;;;;10.38;68.66;101154.00;5060341;28;45317;-61
2022/03/12 05:40:25;;;;;;;;;9.00;3.00;;;;;10.42;68.22;101153.72;5047547;28;45616;-61
2022/03/12 05:42:53;;;;;;;;;3.00;3.00;;;;;10.45;67.93;101148.31;5047097;28;46394;-61
2022/03/12 05:45:19;;;;;;;;;5.50;3.00;;;;;10.47;68.46;101142.97;5060364;28;45323;-61
2022/03/12 05:47:46;;;;;;;;;3.75;2.50;;;;;10.48;68.10;101156.06;5058878;28;45433;-60
2022/03/12 05:50:13;;;;;;;;;3.25;3.00;;;;;10.46;67.68;101157.94;5060380;28;45284;-61
2022/03/12 05:52:47;;;;;;;;;3.25;3.25;;;;;10.44;68.28;101159.81;5059850;28;45391;-61
2022/03/12 05:55:14;;;;;;;;;4.50;3.00;;;;;10.43;67.92;101163.38;5053435;28;45503;-60
2022/03/12 05:57:40;;;;;;;;;3.75;3.00;;;;;10.45;68.13;101163.28;5040176;28;45266;-60
2022/03/12 06:00:11;;;;;;;;;3.75;2.25;;;;;10.48;68.42;101163.09;5040037;28;45374;-61
2022/03/12 06:02:44;;;;;;;;;3.50;3.00;;;;;10.47;67.76;101172.78;5040897;28;46204;-60
2022/03/12 06:05:14;;;;;;;;;6.25;4.00;;;;;10.46;68.01;101165.84;5043520;28;46169;-61
2022/03/12 06:07:44;;;;;;;;;6.25;4.00;;;;;10.43;68.42;101168.63;5042897;28;45351;-60
2022/03/12 06:10:10;;;;;;;;;6.00;4.75;;;;;10.39;68.00;101168.84;5042660;28;45555;-60
2022/03/12 06:12:35;;;;;;;;;6.50;4.75;;;;;10.40;68.27;101179.31;5042872;28;46155;-60
2022/03/12 06:15:04;;;;;;;;;5.75;4.00;;;;;10.42;68.34;101171.31;5043195;28;45352;-61
2022/03/12 06:17:30;;;;;;;;;19.75;19.75;;;;;10.43;67.89;101173.06;5043305;28;45480;-60
2022/03/12 06:19:56;;;;;;;;;6.75;5.25;;;;;10.41;68.29;101175.75;5043337;28;45511;-61
2022/03/12 06:22:21;;;;;;;;;8.00;5.50;;;;;10.42;68.33;101181.84;5052211;28;45300;-60
2022/03/12 06:24:47;;;;;;;;;5.50;4.00;;;;;10.43;68.22;101183.59;5043651;28;45583;-60
2022/03/12 06:27:17;;;;;;;;;5.25;3.00;;;;;10.43;67.74;101191.50;5043467;28;45291;-60
2022/03/12 06:29:42;;;;;;;;;2.50;2.50;;;;;10.43;67.67;101188.84;5042959;28;45373;-61
2022/03/12 06:32:10;;;;;;;;;4.00;2.25;;;;;10.46;67.86;101188.69;5042795;28;45309;-60
2022/03/12 06:34:35;;;;;;;;;6.50;4.00;;;;;10.46;67.25;101200.06;5047354;28;45484;-60
2022/03/12 06:37:02;;;;;;;;;5.75;3.00;;;;;10.45;67.27;101203.63;5042796;28;45414;-60
2022/03/12 06:39:27;;;;;;;;;8.50;4.00;;;;;10.45;67.61;101195.75;5043494;28;45178;-60
2022/03/12 06:41:54;;;;;;;;;6.00;4.75;;;;;10.43;67.32;101207.28;5042843;28;45998;-60
2022/03/12 06:44:20;;;;;;;;;13.00;5.00;;;;;10.38;67.46;101211.94;5049287;28;45324;-61
2022/03/12 06:46:45;;;;;;;;;4.00;4.00;;;;;10.35;67.19;101212.94;5062841;28;45373;-60
2022/03/12 06:49:11;;;;;;;;;5.00;5.00;;;;;10.37;67.29;101216.34;5062974;28;45625;-61
2022/03/12 06:51:38;;;;;;;;;6.00;3.75;;;;;10.38;67.45;101219.81;5062470;28;46121;-60
2022/03/12 06:54:04;;;;;;;;;4.50;4.50;;;;;10.36;67.39;101219.91;5057865;28;45328;-61
2022/03/12 06:56:34;;;;;;;;;4.25;3.25;;;;;10.38;67.34;101231.22;5044827;28;45289;-61
2022/03/12 06:59:00;;;;;;;;;4.00;4.00;;;;;10.38;66.96;101239.13;5042763;28;45328;-61
2022/03/12 07:01:26;;;;;;;;;6.25;4.25;;;;;10.39;66.91;101245.22;5042275;28;45179;-61
2022/03/12 07:03:51;;;;;;;;;4.50;3.50;;;;;10.41;67.41;101252.13;5042692;28;45405;-61
2022/03/12 07:06:17;;;;;;;;;4.00;3.50;;;;;10.42;67.07;101266.13;5042327;28;45482;-61
2022/03/12 07:08:42;;;;;;;;;4.50;3.00;;;;;10.41;67.04;101272.34;5044161;28;45589;-60
2022/03/12 07:11:08;;;;;;;;;3.75;3.00;;;;;10.38;66.75;101262.81;5042266;28;48561;-60
2022/03/12 07:13:35;;;;;;;;;3.25;2.00;;;;;10.38;67.07;101267.22;5050508;28;45525;-61
2022/03/12 07:16:00;;;;;;;;;5.25;3.00;;;;;10.37;67.31;101273.44;5057413;28;45463;-61
2022/03/12 07:18:27;;;;;;;;;4.00;4.00;;;;;10.38;67.41;101267.22;5050979;28;45512;-61
2022/03/12 07:20:52;;;;;;;;;3.50;2.50;;;;;10.40;66.88;101265.38;5049337;28;45695;-61
2022/03/12 07:23:18;;;;;;;;;3.25;3.00;;;;;10.43;67.13;101270.50;5051784;28;45324;-61
2022/03/12 07:25:43;;;;;;;;;4.75;3.00;;;;;10.48;66.63;101268.47;5051431;28;45560;-61
2022/03/12 07:28:10;;;;;;;;;6.50;3.00;;;;;10.47;66.75;101267.63;5050445;28;45574;-61
2022/03/12 07:30:36;;;;;;;;;3.00;3.00;;;;;10.51;66.68;101263.06;5050727;28;46541;-61
2022/03/12 07:33:01;;;;;;;;;2.25;2.25;;;;;10.57;66.96;101273.25;5050350;28;45409;-61
2022/03/12 07:35:27;;;;;;;;;4.25;3.25;;;;;10.62;66.73;101268.63;5051788;28;45425;-65
2022/03/12 07:37:53;;;;;;;;;4.25;3.00;;;;;10.68;66.40;101275.38;5050428;28;45326;-62
2022/03/12 07:40:20;;;;;;;;;6.50;3.00;;;;;10.72;66.53;101284.81;5054093;28;45704;-62
2022/03/12 07:42:47;;;;;;;;;3.50;3.25;;;;;10.78;66.71;101276.59;5052506;28;45483;-66
2022/03/12 07:45:14;;;;;;;;;4.00;3.00;;;;;10.83;66.19;101279.88;5051282;28;45181;-62
2022/03/12 07:47:40;;;;;;;;;7.00;2.00;;;;;10.88;65.88;101278.66;5051349;28;45438;-63
2022/03/12 07:50:08;;;;;;;;;2.25;2.25;;;;;10.95;66.46;101281.00;5049860;28;45446;-63
2022/03/12 07:52:33;;;;;;;;;5.50;4.00;;;;;11.01;66.42;101284.16;5050545;28;45366;-62
2022/03/12 07:54:59;;;;;;;;;4.25;3.00;;;;;11.01;65.92;101276.25;5050546;28;45387;-62
2022/03/12 07:57:28;;;;;;;;;4.25;3.50;;;;;11.04;65.67;101283.16;5052753;28;45286;-62
2022/03/12 07:59:54;;;;;;;;;4.50;4.25;;;;;11.06;65.97;101274.25;5050390;28;46393;-62
2022/03/12 08:02:21;;;;;;;;;4.00;4.00;;;;;11.12;65.45;101280.94;5052957;28;45454;-63
2022/03/12 08:04:47;;;;;;;;;3.75;3.75;;;;;11.17;65.89;101292.13;5052445;28;45510;-63
2022/03/12 08:07:14;;;;;;;;;4.00;4.00;;;;;11.23;65.89;101305.00;5052103;28;45477;-63
2022/03/12 08:09:39;;;;;;;;;3.25;3.00;;;;;11.25;65.31;101311.03;5051352;28;45535;-63
2022/03/12 08:12:06;;;;;;;;;7.00;3.25;;;;;11.29;65.04;101307.28;5050293;28;45434;-63
2022/03/12 08:14:33;;;;;;;;;4.25;4.00;;;;;11.34;65.22;101320.22;5050649;28;45385;-63
2022/03/12 08:16:59;;;;;;;;;3.00;3.00;;;;;11.37;65.60;101320.06;5049629;28;45654;-63
2022/03/12 08:19:24;;;;;;;;;4.25;4.25;;;;;11.38;64.74;101320.00;5052730;28;45407;-63
2022/03/12 08:21:52;;;;;;;;;8.00;4.00;;;;;11.36;64.89;101324.47;5054002;28;45374;-63
2022/03/12 08:24:19;;;;;;;;;4.00;3.75;;;;;11.36;64.89;101329.75;5029253;28;45408;-63
2022/03/12 08:26:46;;;;;;;;;4.25;4.25;;;;;11.36;64.70;101329.75;5048731;28;45625;-63
2022/03/12 08:29:14;;;;;;;;;2.00;2.00;;;;;11.39;65.13;101340.16;5049687;28;46439;-63
2022/03/12 08:31:40;;;;;;;;;4.00;4.00;;;;;11.42;65.19;101345.28;5049421;28;45283;-63
2022/03/12 08:34:11;;;;;;;;;9.50;6.25;;;;;11.44;64.63;101353.09;5049028;28;45630;-63
2022/03/12 08:36:37;;;;;;;;;7.75;4.25;;;;;11.49;64.77;101360.78;5049265;28;45240;-63
2022/03/12 08:39:03;;;;;;;;;4.75;3.00;;;;;11.52;65.06;101361.44;5050379;28;45309;-63
2022/03/12 08:41:29;;;;;;;;;7.50;4.50;;;;;11.54;64.58;101362.25;5044428;28;45375;-63
2022/03/12 08:43:55;;;;;;;;;8.25;6.00;;;;;11.55;64.72;101353.41;5048942;28;45487;-63
2022/03/12 08:46:20;;;;;;;;;2.25;2.00;;;;;11.58;64.53;101353.22;5043316;28;45620;-63
2022/03/12 08:48:46;;;;;;;;;2.75;2.75;;;;;11.60;64.34;101356.63;5051299;28;47366;-63
2022/03/12 08:51:11;;;;;;;;;4.00;3.25;;;;;11.62;64.64;101352.13;5047435;28;45709;-63
2022/03/12 08:53:38;;;;;;;;;4.50;4.00;;;;;11.65;64.45;101341.41;5050691;28;45407;-63
2022/03/12 08:56:04;;;;;;;;;3.25;3.25;;;;;11.69;64.66;101340.31;5050151;28;46565;-63
2022/03/12 08:58:31;;;;;;;;;7.00;4.50;;;;;11.73;64.28;101333.91;5044705;28;45463;-63
2022/03/12 09:01:03;;;;;;;;;3.50;3.00;;;;;11.83;64.46;101346.63;5049179;28;45454;-63
2022/03/12 09:03:30;;;;;;;;;4.25;4.25;;;;;11.89;64.08;101341.03;5049751;28;45536;-63
2022/03/12 09:05:56;;;;;;;;;4.00;4.00;;;;;11.94;64.19;101347.78;5041306;28;45463;-63
2022/03/12 09:08:21;;;;;;;;;5.50;3.00;;;;;11.96;63.90;101348.53;5037807;28;45324;-62
2022/03/12 09:10:47;;;;;;;;;38.25;31.75;;;;;12.01;63.59;101340.38;5045753;28;45255;-63
2022/03/12 09:13:13;;;;;;;;;5.00;3.00;;;;;12.02;63.59;101339.44;5050047;28;45368;-65
2022/03/12 09:15:41;;;;;;;;;5.25;4.25;;;;;12.05;63.70;101343.69;5060357;28;45291;-67
2022/03/12 09:18:07;;;;;;;;;3.00;3.00;;;;;12.08;63.81;101346.13;5052305;28;47125;-62
2022/03/12 09:20:42;;;;;;;;;5.25;4.75;;;;;12.15;63.48;101339.56;5056473;28;45580;-64
2022/03/12 09:23:07;;;;;;;;;9.75;4.50;;;;;12.22;63.53;101341.78;5050353;28;45300;-61
2022/03/12 09:25:33;;;;;;;;;4.00;4.00;;;;;12.28;63.40;101336.16;5055362;28;45304;-64
2022/03/12 09:27:59;;;;;;;;;4.25;4.00;;;;;12.37;63.55;101341.84;5057570;28;45320;-64
2022/03/12 09:30:26;;;;;;;;;9.00;4.50;;;;;12.41;63.07;101344.25;5033025;28;45277;-63
2022/03/12 09:32:51;;;;;;;;;3.00;3.00;;;;;12.41;62.79;101344.25;5049929;28;45483;-63
2022/03/12 09:35:19;;;;;;;;;6.50;4.00;;;;;12.39;62.88;101345.25;5049348;28;45399;-64
2022/03/12 09:37:45;;;;;;;;;6.25;3.50;;;;;12.36;62.99;101340.16;5048612;28;46348;-64
2022/03/12 09:40:11;;;;;;;;;4.75;4.75;;;;;12.30;63.11;101339.56;5046795;28;45497;-63
2022/03/12 09:42:37;;;;;;;;;8.50;4.00;;;;;12.32;63.19;101344.75;5047336;28;45490;-64
2022/03/12 09:45:03;;;;;;;;;9.00;6.00;;;;;12.36;63.29;101341.00;5051010;28;45690;-64
2022/03/12 09:47:29;;;;;;;;;4.75;4.75;;;;;12.40;63.26;101336.38;5053520;28;45288;-64
2022/03/12 09:49:54;;;;;;;;;4.00;4.00;;;;;12.40;63.59;101333.75;5051175;28;45432;-65
2022/03/12 09:52:20;;;;;;;;;9.25;6.25;;;;;12.45;63.43;101329.91;5052644;28;45372;-64
2022/03/12 09:54:46;;;;;;;;;8.50;5.50;;;;;12.50;63.47;101334.94;5049936;28;45373;-65
2022/03/12 09:57:11;;;;;;;;;5.00;3.00;;;;;12.61;63.54;101339.59;5053974;28;45391;-65
2022/03/12 09:59:37;;;;;;;;;6.25;6.25;;;;;12.70;63.34;101337.25;5051113;28;45257;-65
2022/03/12 10:02:02;;;;;;;;;9.75;7.00;;;;;12.78;63.19;101335.00;5052732;28;45240;-66
2022/03/12 10:04:28;;;;;;;;;9.00;6.50;;;;;12.84;62.81;101334.66;5051684;28;45174;-66
2022/03/12 10:06:55;;;;;;;;;5.00;4.00;;;;;12.99;63.07;101332.06;5051761;28;45510;-69
2022/03/12 10:09:20;;;;;;;;;9.50;7.25;;;;;13.09;63.00;101336.69;5049720;28;45371;-69
2022/03/12 10:11:49;;;;;;;;;5.25;4.50;;;;;13.18;62.48;101334.44;5054563;28;45281;-66
2022/03/12 10:14:15;;;;;;;;;7.25;4.75;;;;;13.23;62.20;101337.69;5053349;28;45502;-65
2022/03/12 10:16:40;;;;;;;;;4.00;4.00;;;;;13.30;62.09;101334.59;5045304;28;45872;-64
2022/03/12 10:19:06;;;;;;;;;3.75;3.00;;;;;13.32;61.74;101324.75;5051668;28;45296;-65
2022/03/12 10:21:32;;;;;;;;;3.00;3.00;;;;;13.32;61.68;101335.31;5049792;28;45632;-65
2022/03/12 10:23:59;;;;;;;;;3.75;3.00;;;;;13.39;61.72;101338.47;5052187;28;45455;-66
2022/03/12 10:26:25;;;;;;;;;4.00;2.50;;;;;13.46;61.64;101333.63;5056162;28;45293;-66
2022/03/12 10:28:51;;;;;;;;;2.00;2.00;;;;;13.55;61.17;101320.69;5043585;28;45388;-65
2022/03/12 10:31:19;;;;;;;;;4.00;3.50;;;;;13.56;61.06;101317.09;5047871;28;45237;-69
2022/03/12 10:33:45;;;;;;;;;3.75;2.50;;;;;13.48;61.25;101311.41;5046476;28;45234;-62
2022/03/12 10:36:17;;;;;;;;;2.50;2.50;;;;;13.47;61.46;101317.66;5056039;28;45405;-62
2022/03/12 10:38:48;;;;;;;;;2.75;2.75;;;;;13.51;61.29;101319.19;5053129;28;45430;-63
2022/03/12 10:41:15;;;;;;;;;6.50;4.00;;;;;13.64;61.49;101320.09;5059388;28;45440;-65
2022/03/12 10:43:51;;;;;;;;;3.50;3.00;;;;;13.77;61.04;101314.03;5057108;28;45446;-64
2022/03/12 10:46:30;;;;;;;;;4.00;3.25;;;;;13.84;60.89;101320.66;5062569;28;45321;-67
2022/03/12 10:48:58;;;;;;;;;4.25;3.00;;;;;13.90;61.31;101321.13;5061559;28;45352;-65
2022/03/12 10:51:36;;;;;;;;;8.00;4.00;;;;;13.99;60.54;101324.97;5050714;28;45416;-64
2022/03/12 10:54:07;;;;;;;;;6.50;4.25;;;;;13.96;60.36;101314.56;5052751;28;45524;-72
2022/03/12 10:56:54;;;;;;;;;6.00;5.00;;;;;13.92;60.20;101321.00;5055176;28;45386;-67
2022/03/12 10:59:23;;;;;;;;;4.50;4.00;;;;;13.95;60.25;101312.84;5054446;28;45308;-67
2022/03/12 11:01:50;;;;;;;;;7.00;4.00;;;;;13.94;60.18;101316.47;5055561;28;45261;-68
2022/03/12 11:04:24;;;;;;;;;5.50;3.00;;;;;13.97;60.46;101314.44;5053187;28;45396;-71
2022/03/12 11:06:51;;;;;;;;;4.25;3.25;;;;;14.01;60.25;101309.81;5055944;28;45364;-67
2022/03/12 11:09:30;;;;;;;;;5.75;4.00;;;;;14.07;60.20;101306.78;5052549;28;45371;-67
2022/03/12 11:11:57;;;;;;;;;7.25;4.75;;;;;14.02;60.21;101300.94;5051360;28;45391;-67
2022/03/12 11:14:23;;;;;;;;;5.75;4.75;;;;;13.97;60.11;101308.31;5052181;28;45547;-67
2022/03/12 11:16:52;;;;;;;;;8.25;4.25;;;;;13.98;60.40;101296.75;5055574;28;45464;-72
2022/03/12 11:19:37;;;;;;;;;10.00;5.00;;;;;14.02;60.31;101290.31;5053934;28;45360;-67
2022/03/12 11:22:14;;;;;;;;;6.50;4.00;;;;;14.07;59.96;101290.88;5052941;28;45440;-73
2022/03/12 11:24:49;;;;;;;;;3.25;3.00;;;;;14.12;59.89;101296.72;5050567;28;45311;-77